createdAt,value
2016-11-05T00:02:21.230Z,9.54
2016-11-05T00:05:38.399Z,9.57
2016-11-05T00:08:55.064Z,9.59
2016-11-05T00:12:11.761Z,9.58
2016-11-05T00:15:28.476Z,9.6
2016-11-05T00:18:45.419Z,9.66
2016-11-05T00:22:02.426Z,9.71
2016-11-05T00:25:19.137Z,9.76
2016-11-05T00:28:36.164Z,9.75
2016-11-05T00:31:52.913Z,9.7
2016-11-05T00:35:09.609Z,9.68
2016-11-05T00:38:26.816Z,9.66
2016-11-05T00:41:43.733Z,9.64
2016-11-05T00:45:01.079Z,9.62
2016-11-05T00:48:19.155Z,9.6
2016-11-05T00:51:36.212Z,9.55
2016-11-05T00:54:52.598Z,9.53
2016-11-05T00:58:10.151Z,9.47
2016-11-05T01:01:26.624Z,9.46
2016-11-05T01:04:44.160Z,9.47
2016-11-05T01:08:00.568Z,9.49
2016-11-05T01:11:17.924Z,9.5
2016-11-05T01:14:35.142Z,9.52
2016-11-05T01:17:51.979Z,9.54
2016-11-05T01:21:08.760Z,9.57
2016-11-05T01:24:25.449Z,9.59
2016-11-05T01:27:42.494Z,9.6
2016-11-05T01:30:59.170Z,9.58
2016-11-05T01:34:15.887Z,9.58
2016-11-05T01:37:33.327Z,9.56
2016-11-05T01:40:50.515Z,9.51
2016-11-05T01:44:07.554Z,9.48
2016-11-05T01:47:24.371Z,9.43
2016-11-05T01:50:41.651Z,9.36
2016-11-05T01:53:58.655Z,9.37
2016-11-05T01:57:15.682Z,9.41
2016-11-05T02:00:32.206Z,9.43
2016-11-05T02:03:49.712Z,9.41
2016-11-05T02:07:06.237Z,9.38
2016-11-05T02:10:23.315Z,9.37
2016-11-05T02:13:39.693Z,9.38
2016-11-05T02:16:57.104Z,9.44
2016-11-05T02:20:14.193Z,9.42
2016-11-05T02:23:30.855Z,9.42
2016-11-05T02:26:47.114Z,9.45
2016-11-05T02:30:04.076Z,9.47
2016-11-05T02:33:20.754Z,9.5
2016-11-05T02:36:37.766Z,9.51
2016-11-05T02:39:54.505Z,9.49
2016-11-05T02:43:11.711Z,9.45
2016-11-05T02:46:28.292Z,9.44
2016-11-05T02:49:45.969Z,9.45
2016-11-05T02:53:02.718Z,9.45
2016-11-05T02:56:19.739Z,9.42
2016-11-05T02:59:36.133Z,9.41
2016-11-05T03:02:53.931Z,9.41
2016-11-05T03:06:10.567Z,9.39
2016-11-05T03:09:28.035Z,9.44
2016-11-05T03:12:44.437Z,9.46
2016-11-05T03:16:01.987Z,9.47
2016-11-05T03:19:18.458Z,9.45
2016-11-05T03:22:35.504Z,9.44
2016-11-05T03:25:52.195Z,9.49
2016-11-05T03:33:09.674Z,9.54
2016-11-05T03:36:26.669Z,9.55
2016-11-05T03:39:42.996Z,9.57
2016-11-05T03:42:59.925Z,9.59
2016-11-05T03:46:16.350Z,9.59
2016-11-05T03:49:33.442Z,9.55
2016-11-05T03:52:50.049Z,9.55
2016-11-05T03:56:06.955Z,9.58
2016-11-05T03:59:23.278Z,9.62
2016-11-05T04:02:40.613Z,9.64
2016-11-05T04:05:56.885Z,9.67
2016-11-05T04:09:14.319Z,9.66
2016-11-05T04:12:30.782Z,9.62
2016-11-05T04:15:47.797Z,9.6
2016-11-05T04:19:04.052Z,9.52
2016-11-05T04:22:21.266Z,9.5
2016-11-05T04:25:38.310Z,9.53
2016-11-05T04:28:55.609Z,9.55
2016-11-05T04:32:12.172Z,9.58
2016-11-05T04:35:29.039Z,9.56
2016-11-05T04:38:46.317Z,9.54
2016-11-05T04:42:03.002Z,9.53
2016-11-05T04:45:19.941Z,9.5
2016-11-05T04:48:36.858Z,9.49
2016-11-05T04:51:53.422Z,9.51
2016-11-05T04:55:10.344Z,9.53
2016-11-05T04:58:26.646Z,9.48
2016-11-05T05:01:43.560Z,9.41
2016-11-05T05:10:14.892Z,9.42
2016-11-05T05:13:32.267Z,9.48
2016-11-05T05:16:48.985Z,9.49
2016-11-05T05:20:06.308Z,9.46
2016-11-05T05:23:23.076Z,9.42
2016-11-05T05:26:41.143Z,9.43
2016-11-05T05:29:57.796Z,9.46
2016-11-05T05:33:15.308Z,9.49
2016-11-05T05:36:31.997Z,9.53
2016-11-05T05:39:49.333Z,9.55
2016-11-05T05:43:06.757Z,9.52
2016-11-05T05:46:24.110Z,9.43
2016-11-05T05:49:40.788Z,9.28
2016-11-05T05:52:57.680Z,9.17
2016-11-05T05:56:15.063Z,9.13
2016-11-05T05:59:31.992Z,9.11
2016-11-05T06:02:48.947Z,9.17
2016-11-05T06:06:05.838Z,9.19
2016-11-05T06:09:22.881Z,9.26
2016-11-05T06:12:40.249Z,9.39
2016-11-05T06:15:57.536Z,9.53
2016-11-05T06:19:15.087Z,9.56
2016-11-05T06:22:32.536Z,9.54
2016-11-05T06:25:49.737Z,9.48
2016-11-05T06:29:07.608Z,9.46
2016-11-05T06:32:24.696Z,9.53
2016-11-05T06:35:41.956Z,9.56
2016-11-05T06:38:59.227Z,9.57
2016-11-05T06:42:16.517Z,9.6
2016-11-05T06:45:33.580Z,9.7
2016-11-05T06:48:50.894Z,9.83
2016-11-05T06:52:08.013Z,9.93
2016-11-05T06:55:24.739Z,9.96
2016-11-05T06:58:41.764Z,10.03
2016-11-05T07:01:59.098Z,10.08
2016-11-05T07:05:16.332Z,10.17
2016-11-05T07:08:32.800Z,10.27
2016-11-05T07:11:50.055Z,10.36
2016-11-05T07:16:20.508Z,10.38
2016-11-05T07:19:52.844Z,10.33
2016-11-05T07:23:09.354Z,10.33
2016-11-05T07:26:26.667Z,10.33
2016-11-05T07:29:43.448Z,10.38
2016-11-05T07:33:00.919Z,10.44
2016-11-05T07:36:18.058Z,10.52
2016-11-05T07:39:35.255Z,10.57
2016-11-05T07:42:53.422Z,10.59
2016-11-05T07:46:10.583Z,10.61
2016-11-05T07:49:28.004Z,10.52
2016-11-05T07:52:46.094Z,10.43
2016-11-05T07:56:03.557Z,10.52
2016-11-05T07:59:26.909Z,10.58
2016-11-05T08:02:44.299Z,10.6
2016-11-05T08:06:01.633Z,10.62
2016-11-05T08:09:18.706Z,10.67
2016-11-05T08:12:36.551Z,10.69
2016-11-05T08:15:53.381Z,10.73
2016-11-05T08:19:10.422Z,10.77
2016-11-05T08:22:42.123Z,10.79
2016-11-05T08:26:29.239Z,10.78
2016-11-05T08:29:45.940Z,10.78
2016-11-05T08:33:03.082Z,10.81
2016-11-05T08:36:19.939Z,10.83
2016-11-05T08:39:37.186Z,10.87
2016-11-05T08:42:53.780Z,10.89
2016-11-05T08:46:11.325Z,10.89
2016-11-05T08:49:28.210Z,10.94
2016-11-05T08:52:45.642Z,10.98
2016-11-05T08:56:02.622Z,11.04
2016-11-05T08:59:19.694Z,11.07
2016-11-05T09:02:36.629Z,10.98
2016-11-05T09:09:40.184Z,10.79
2016-11-05T09:12:58.095Z,10.73
2016-11-05T09:16:14.553Z,10.69
2016-11-05T09:19:45.991Z,10.69
2016-11-05T09:24:01.778Z,10.75
2016-11-05T09:27:18.909Z,10.83
2016-11-05T09:30:52.203Z,10.93
2016-11-05T09:34:10.747Z,10.98
2016-11-05T09:41:46.543Z,11.15
2016-11-05T09:45:33.454Z,11.22
2016-11-05T09:48:53.358Z,11.28
2016-11-05T09:52:15.643Z,11.34
2016-11-05T09:55:51.183Z,11.4
2016-11-05T09:59:24.078Z,11.38
2016-11-05T10:02:48.040Z,11.19
2016-11-05T10:06:13.783Z,10.92
2016-11-05T10:09:34.295Z,10.72
2016-11-05T10:13:08.132Z,10.63
2016-11-05T10:16:45.286Z,10.63
2016-11-05T10:20:03.479Z,10.63
2016-11-05T10:23:23.311Z,10.67
2016-11-05T10:26:41.235Z,10.71
2016-11-05T10:30:01.632Z,10.71
2016-11-05T10:33:20.558Z,10.68
2016-11-05T10:36:41.118Z,10.67
2016-11-05T10:39:59.300Z,10.63
2016-11-05T10:43:19.143Z,10.6
2016-11-05T10:46:39.572Z,10.7
2016-11-05T10:50:16.645Z,10.85
2016-11-05T10:53:51.206Z,10.92
2016-11-05T10:57:09.313Z,10.96
2016-11-05T11:00:27.935Z,10.99
2016-11-05T11:04:16.586Z,11.06
2016-11-05T11:07:40.275Z,11.14
2016-11-05T11:10:57.242Z,11.23
2016-11-05T11:14:13.621Z,11.32
2016-11-05T11:22:15.803Z,11.54
2016-11-05T11:25:47.945Z,11.63
2016-11-05T11:29:05.215Z,11.75
2016-11-05T11:32:22.556Z,11.84
2016-11-05T11:35:40.004Z,11.86
2016-11-05T11:38:57.096Z,11.89
2016-11-05T11:42:14.025Z,11.92
2016-11-05T11:45:31.492Z,11.87
2016-11-05T11:48:48.589Z,11.83
2016-11-05T11:52:05.574Z,11.8
2016-11-05T11:55:52.123Z,11.81
2016-11-05T12:03:25.647Z,11.85
2016-11-05T12:06:58.503Z,11.75
2016-11-05T12:10:16.248Z,11.76
2016-11-05T12:13:34.241Z,11.76
2016-11-05T12:17:22.631Z,11.77
2016-11-05T12:30:24.750Z,11.7
2016-11-05T12:34:05.786Z,11.56
2016-11-05T12:38:00.068Z,11.52
2016-11-05T12:51:29.912Z,11.8
2016-11-05T13:05:53.208Z,11.81
2016-11-05T13:10:52.823Z,11.86
2016-11-05T13:20:24.463Z,11.98
2016-11-05T13:23:42.076Z,12.08
2016-11-05T13:26:59.067Z,12.18
2016-11-05T13:30:16.073Z,12.3
2016-11-05T13:33:33.017Z,12.38
2016-11-05T13:36:50.199Z,12.49
2016-11-05T13:40:07.350Z,12.52
2016-11-05T13:43:24.704Z,12.42
2016-11-05T13:46:41.868Z,12.34
2016-11-05T13:50:13.646Z,12.27
2016-11-05T13:57:46.454Z,12.38
2016-11-05T14:02:02.118Z,12.4
2016-11-05T14:05:34.203Z,12.33
2016-11-05T14:09:05.677Z,12.29
2016-11-05T14:12:24.664Z,12.19
2016-11-05T14:15:41.499Z,12.12
2016-11-05T14:20:12.317Z,12.08
2016-11-05T14:23:58.496Z,12.11
2016-11-05T14:27:15.262Z,12.13
2016-11-05T14:30:32.598Z,12.11
2016-11-05T14:33:50.011Z,12.06
2016-11-05T14:37:07.672Z,11.97
2016-11-05T14:40:24.453Z,11.88
2016-11-05T14:44:11.306Z,11.85
2016-11-05T14:48:12.388Z,11.84
2016-11-05T14:55:17.584Z,11.86
2016-11-05T14:58:35.461Z,11.89
2016-11-05T15:02:08.748Z,11.94
2016-11-05T15:05:25.704Z,11.93
2016-11-05T15:08:42.998Z,11.84
2016-11-05T15:28:07.020Z,11.45
2016-11-05T15:31:38.417Z,11.31
2016-11-05T15:35:10.431Z,11.23
2016-11-05T15:38:27.326Z,11.21
2016-11-05T15:41:44.625Z,11.18
2016-11-05T15:45:01.644Z,11.15
2016-11-05T15:48:19.056Z,11.14
2016-11-05T15:51:35.770Z,11.08
2016-11-05T15:54:53.186Z,11
2016-11-05T15:58:09.853Z,10.99
2016-11-05T16:01:26.472Z,10.98
2016-11-05T16:04:44.157Z,10.92
2016-11-05T16:08:01.058Z,10.91
2016-11-05T16:11:17.878Z,10.89
2016-11-05T16:14:34.823Z,10.87
2016-11-05T16:17:51.766Z,10.81
2016-11-05T16:21:08.605Z,10.68
2016-11-05T16:24:25.766Z,10.64
2016-11-05T16:27:42.807Z,10.65
2016-11-05T16:30:59.750Z,10.64
2016-11-05T16:34:17.325Z,10.54
2016-11-05T16:37:34.316Z,10.45
2016-11-05T16:40:51.231Z,10.41
2016-11-05T16:44:08.168Z,10.41
2016-11-05T16:47:25.443Z,10.46
2016-11-05T16:50:42.359Z,10.46
2016-11-05T16:53:58.864Z,10.47
2016-11-05T16:57:16.108Z,10.43
2016-11-05T17:00:32.498Z,10.32
2016-11-05T17:03:49.432Z,10.3
2016-11-05T17:07:20.698Z,10.27
2016-11-05T17:10:37.923Z,10.26
2016-11-05T17:13:54.847Z,10.26
2016-11-05T17:17:11.899Z,10.22
2016-11-05T17:20:29.371Z,10.19
2016-11-05T17:23:46.386Z,10.16
2016-11-05T17:27:02.778Z,10.13
2016-11-05T17:30:20.036Z,10.12
2016-11-05T17:33:36.449Z,10.11
2016-11-05T17:36:53.761Z,10.09
2016-11-05T17:40:10.223Z,10.04
2016-11-05T17:43:27.677Z,10.01
2016-11-05T17:46:44.108Z,10.02
2016-11-05T17:50:01.429Z,9.98
2016-11-05T17:53:17.890Z,9.95
2016-11-05T17:56:35.609Z,9.93
2016-11-05T17:59:52.754Z,9.92
2016-11-05T18:03:09.811Z,9.87
2016-11-05T18:06:26.825Z,9.76
2016-11-05T18:09:43.640Z,9.7
2016-11-05T18:13:00.480Z,9.63
2016-11-05T18:16:19.011Z,9.58
2016-11-05T18:19:37.383Z,9.53
2016-11-05T18:22:54.491Z,9.52
2016-11-05T18:26:12.150Z,9.51
2016-11-05T18:29:36.134Z,9.49
2016-11-05T18:32:54.773Z,9.47
2016-11-05T18:36:23.675Z,9.38
2016-11-05T18:39:49.093Z,9.36
2016-11-05T18:43:17.036Z,9.35
2016-11-05T18:46:34.864Z,9.33
2016-11-05T18:49:52.916Z,9.33
2016-11-05T18:53:10.124Z,9.31
2016-11-05T18:56:27.032Z,9.26
2016-11-05T18:59:44.306Z,9.29
2016-11-05T19:03:01.110Z,9.27
2016-11-05T19:06:18.635Z,9.27
2016-11-05T19:09:36.000Z,9.28
2016-11-05T19:12:52.455Z,9.26
2016-11-05T19:16:09.712Z,9.24
2016-11-05T19:23:57.135Z,9.28
2016-11-05T19:27:14.425Z,9.38
2016-11-05T19:30:31.371Z,9.44
2016-11-05T19:33:48.183Z,9.46
2016-11-05T19:37:05.572Z,9.48
2016-11-05T19:40:22.352Z,9.51
2016-11-05T19:43:39.862Z,9.55
2016-11-05T19:46:56.506Z,9.63
2016-11-05T19:50:28.555Z,9.66
2016-11-05T19:53:45.095Z,9.6
2016-11-05T19:57:02.274Z,9.47
2016-11-05T20:00:18.843Z,9.37
2016-11-05T20:03:35.995Z,9.31
2016-11-05T20:06:52.915Z,9.34
2016-11-05T20:10:10.071Z,9.37
2016-11-05T20:13:42.039Z,9.44
2016-11-05T20:16:59.324Z,9.45
2016-11-05T20:20:16.879Z,9.41
2016-11-05T20:23:34.076Z,9.35
2016-11-05T20:26:50.912Z,9.22
2016-11-05T20:30:08.107Z,9.12
2016-11-05T21:07:25.355Z,23.05
2016-11-05T21:11:29.127Z,16.87
2016-11-05T21:12:58.463Z,11.02
2016-11-05T21:14:13.683Z,9.52
2016-11-05T21:15:57.648Z,8.66
2016-11-05T21:18:56.202Z,8.2
2016-11-05T21:20:26.212Z,8.13
2016-11-05T21:21:41.976Z,8.1
2016-11-05T21:22:56.587Z,8.08
2016-11-05T21:24:11.618Z,8.08
2016-11-05T21:25:26.316Z,8.08
2016-11-05T21:26:42.878Z,8.1
2016-11-05T21:28:06.748Z,8.11
2016-11-05T21:29:24.347Z,8.12
2016-11-05T21:30:40.698Z,8.12
2016-11-05T21:31:57.269Z,8.15
2016-11-05T21:33:11.818Z,8.16
2016-11-05T21:34:37.829Z,8.18
2016-11-05T21:35:58.975Z,8.18
2016-11-05T21:37:15.700Z,8.18
2016-11-05T21:40:24.812Z,8.22
2016-11-05T21:41:42.428Z,8.21
2016-11-05T21:42:57.830Z,8.22
2016-11-05T21:44:12.412Z,8.22
2016-11-05T21:45:28.178Z,8.2
2016-11-05T21:46:57.608Z,8.15
2016-11-05T21:48:13.072Z,8.08
2016-11-05T21:49:28.154Z,8
2016-11-05T21:50:48.284Z,7.93
2016-11-05T21:52:08.075Z,7.86
2016-11-05T21:53:23.907Z,7.83
2016-11-05T21:54:40.074Z,7.78
2016-11-05T21:55:55.320Z,7.75
2016-11-05T21:57:09.840Z,7.73
2016-11-05T21:58:24.108Z,7.74
2016-11-05T21:59:38.897Z,7.72
2016-11-05T22:00:53.315Z,7.72
2016-11-05T22:02:08.190Z,7.72
2016-11-05T22:03:22.717Z,7.73
2016-11-05T22:04:37.175Z,7.74
2016-11-05T22:05:51.951Z,7.75
2016-11-05T22:07:06.603Z,7.75
2016-11-05T22:08:21.303Z,7.75
2016-11-05T22:09:35.683Z,7.74
2016-11-05T22:10:50.418Z,7.73
2016-11-05T22:12:05.229Z,7.73
2016-11-05T22:13:19.612Z,7.7
2016-11-05T22:14:34.369Z,7.67
2016-11-05T22:15:49.022Z,7.66
2016-11-05T22:17:03.307Z,7.67
2016-11-05T22:18:17.581Z,7.67
2016-11-05T22:19:32.090Z,7.7
2016-11-05T22:20:46.932Z,7.7
2016-11-05T22:22:02.078Z,7.7
2016-11-05T22:23:16.454Z,7.69
2016-11-05T22:24:30.992Z,7.67
2016-11-05T22:25:45.413Z,7.66
2016-11-05T22:27:00.226Z,7.65
2016-11-05T22:28:14.290Z,7.65
2016-11-05T22:29:28.550Z,7.64
2016-11-05T22:30:58.079Z,7.65
2016-11-05T22:32:14.842Z,7.66
2016-11-05T22:33:29.945Z,7.67
2016-11-05T22:34:44.387Z,7.69
2016-11-05T22:35:58.623Z,7.7
2016-11-05T22:37:13.625Z,7.7
2016-11-05T22:38:28.076Z,7.73
2016-11-05T22:39:43.103Z,7.74
2016-11-05T22:40:57.354Z,7.78
2016-11-05T22:42:11.746Z,7.8
2016-11-05T22:43:26.795Z,7.84
2016-11-05T22:44:41.430Z,7.85
2016-11-05T22:45:55.921Z,7.89
2016-11-05T22:47:10.652Z,7.92
2016-11-05T22:48:25.095Z,7.93
2016-11-05T22:49:40.767Z,7.95
2016-11-05T22:50:56.294Z,7.96
2016-11-05T22:52:11.884Z,7.98
2016-11-05T22:53:26.242Z,7.99
2016-11-05T22:54:55.940Z,7.99
2016-11-05T22:56:10.671Z,7.99
2016-11-05T23:00:37.208Z,7.97
2016-11-05T23:01:52.406Z,7.96
2016-11-05T23:03:07.679Z,7.96
2016-11-05T23:04:22.154Z,7.96
2016-11-05T23:05:37.227Z,7.95
2016-11-05T23:06:52.869Z,7.96
2016-11-05T23:08:07.404Z,7.95
2016-11-05T23:09:22.124Z,7.94
2016-11-05T23:10:36.681Z,7.91
2016-11-05T23:11:52.135Z,7.9
2016-11-05T23:13:06.748Z,7.87
2016-11-05T23:14:21.464Z,7.86
2016-11-05T23:15:36.389Z,7.84
2016-11-05T23:16:51.024Z,7.84
2016-11-05T23:18:05.776Z,7.81
2016-11-05T23:19:20.599Z,7.78
2016-11-05T23:20:34.817Z,7.77
2016-11-05T23:21:49.780Z,7.75
2016-11-05T23:23:04.554Z,7.72
2016-11-05T23:24:19.778Z,7.69
2016-11-05T23:25:34.335Z,7.69
2016-11-05T23:26:48.972Z,7.69
2016-11-05T23:28:03.902Z,7.69
2016-11-05T23:29:19.259Z,7.7
2016-11-05T23:30:33.740Z,7.71
2016-11-05T23:31:49.005Z,7.73
2016-11-05T23:33:03.954Z,7.75
2016-11-05T23:34:20.107Z,7.76
2016-11-05T23:35:34.544Z,7.77
2016-11-05T23:36:49.489Z,7.77
2016-11-05T23:38:03.852Z,7.77
2016-11-05T23:39:18.857Z,7.78
2016-11-05T23:40:34.072Z,7.75
2016-11-05T23:41:48.913Z,7.76
2016-11-05T23:43:18.900Z,7.74
2016-11-05T23:44:33.832Z,7.71
2016-11-05T23:45:49.005Z,7.69
2016-11-05T23:47:04.112Z,7.67
2016-11-05T23:48:20.398Z,7.66
2016-11-05T23:49:34.964Z,7.66
2016-11-05T23:50:49.500Z,7.67
2016-11-05T23:52:08.391Z,7.68
2016-11-05T23:53:24.485Z,7.67
2016-11-05T23:54:38.965Z,7.68
2016-11-05T23:56:09.212Z,7.68
2016-11-05T23:57:46.388Z,7.67
2016-11-05T23:59:02.293Z,7.64
